Vera Cruz, Indiana
Current Conditions -  °F | °C
As of 6:35 AM on Friday 24 Oct 2014 (Local Time) from KHHG Reporting Station
Clear Clear  
Wind Chill: 41°   Ceiling: Unl
Heat Index: 41°   Visibility: 10mi
Dew Point: 38°   Wind: 3mph
Humidity: 91%   Direction: 210°SSW
Pressure: 30.1"   Gusts: NA
Location:  40.7175°N, 85.1549°W
Report Text: KHHG 241035Z AUTO 21003KT 10SM CLR 05/04 A3010 RMK AO2 T00500036
Loading
Personal Weather Stations






























Interactive Weather Map
Tropical Storm Tracking
New forecast layout! Learn more

10-Day Weather Forecast

Advertisements
Track Severe Weather on mobile